Flugplatz Würzburg-Schenkenturm

Für EDFW sind keine METAR/TAF Berichte vorhanden.
Es werden die Flugwettermeldungen vom Flugplatz Niederstetten Airport in 47 km Entfernung angezeigt.

Bericht für ETHN

vom 01.12. um 08:20 UTC

Wind 10 kt aus 240°

Sichtweite 10 km oder mehr

gering bewölkt in 600 ft

aufgebrochene Bewölkung in 2400 ft

Temperatur 4.0°C

Taupunkt 3.0°C

Luftfeuchtigkeit 93%

Luftdruck 1001 hPa

ETHN 010820Z 24010KT 9999 FEW006 BKN024 04/03 Q1001 WHT WHT

Prognose für ETHN

vom 01.12. um 08:21 UTC

Zwischen 09:00 UTC und 18:00 UTC

Wind 15 kt aus 230° in Böen 25 kt

Sichtweite 10 km oder mehr

keine signifikanten Wettererscheinungen

aufgebrochene Bewölkung in 2000 ft


Zwischen 09:00 UTC und 18:00 UTC zeitweise

Wind 20 kt aus 250° in Böen 30 kt

Sichtweite 3000 m

Regen

aufgebrochene Bewölkung in 700 ft

bedeckt in 1500 ft

TAF ETHN 010821Z 0109/0118 23015G25KT 9999 NSW BKN020 TEMPO 0109/0118 25020G30KT 3000 RA BKN007 OVC015
Impressum